sensor_id;sensor_type;location;lat;lon;timestamp;P1;P2;P0
44350;PMS5003;62766;62.622;17.912;2023-04-03T00:01:01;5;3;
44350;PMS5003;62766;62.622;17.912;2023-04-03T00:03:32;5;2;
44350;PMS5003;62766;62.622;17.912;2023-04-03T00:06:00;5;3;
44350;PMS5003;62766;62.622;17.912;2023-04-03T00:08:29;2;1;
44350;PMS5003;62766;62.622;17.912;2023-04-03T00:10:58;3;1;
44350;PMS5003;62766;62.622;17.912;2023-04-03T00:13:27;3;3;
44350;PMS5003;62766;62.622;17.912;2023-04-03T00:15:55;2;2;
44350;PMS5003;62766;62.622;17.912;2023-04-03T00:18:24;5;3;
44350;PMS5003;62766;62.622;17.912;2023-04-03T00:20:53;5;5;
44350;PMS5003;62766;62.622;17.912;2023-04-03T00:23:21;3;3;
44350;PMS5003;62766;62.622;17.912;2023-04-03T00:25:50;5;2;
44350;PMS5003;62766;62.622;17.912;2023-04-03T00:28:19;2;2;
44350;PMS5003;62766;62.622;17.912;2023-04-03T00:30:48;2;2;
44350;PMS5003;62766;62.622;17.912;2023-04-03T00:33:16;0;0;
44350;PMS5003;62766;62.622;17.912;2023-04-03T00:35:45;2;2;
44350;PMS5003;62766;62.622;17.912;2023-04-03T00:38:14;3;2;
44350;PMS5003;62766;62.622;17.912;2023-04-03T00:40:44;3;2;
44350;PMS5003;62766;62.622;17.912;2023-04-03T00:43:15;3;3;
44350;PMS5003;62766;62.622;17.912;2023-04-03T00:45:45;5;2;
44350;PMS5003;62766;62.622;17.912;2023-04-03T00:48:16;5;5;
44350;PMS5003;62766;62.622;17.912;2023-04-03T00:50:49;5;3;
44350;PMS5003;62766;62.622;17.912;2023-04-03T00:53:21;3;2;
44350;PMS5003;62766;62.622;17.912;2023-04-03T00:55:54;5;2;
44350;PMS5003;62766;62.622;17.912;2023-04-03T00:58:25;1;1;
44350;PMS5003;62766;62.622;17.912;2023-04-03T01:01:00;2;2;
44350;PMS5003;62766;62.622;17.912;2023-04-03T01:03:34;3;3;
44350;PMS5003;62766;62.622;17.912;2023-04-03T01:06:03;2;2;
44350;PMS5003;62766;62.622;17.912;2023-04-03T01:08:33;2;2;
44350;PMS5003;62766;62.622;17.912;2023-04-03T01:11:04;6;2;
44350;PMS5003;62766;62.622;17.912;2023-04-03T01:13:32;5;3;
44350;PMS5003;62766;62.622;17.912;2023-04-03T01:16:02;2;2;
44350;PMS5003;62766;62.622;17.912;2023-04-03T01:18:33;3;2;
44350;PMS5003;62766;62.622;17.912;2023-04-03T01:21:43;3;1;
44350;PMS5003;62766;62.622;17.912;2023-04-03T01:24:33;5;2;
44350;PMS5003;62766;62.622;17.912;2023-04-03T01:27:05;6;2;
44350;PMS5003;62766;62.622;17.912;2023-04-03T01:29:36;2;2;
44350;PMS5003;62766;62.622;17.912;2023-04-03T01:32:05;6;2;
44350;PMS5003;62766;62.622;17.912;2023-04-03T01:34:33;3;3;
44350;PMS5003;62766;62.622;17.912;2023-04-03T01:37:02;2;2;
44350;PMS5003;62766;62.622;17.912;2023-04-03T01:39:32;1;1;
44350;PMS5003;62766;62.622;17.912;2023-04-03T01:42:02;2;2;
44350;PMS5003;62766;62.622;17.912;2023-04-03T01:44:30;2;2;
44350;PMS5003;62766;62.622;17.912;2023-04-03T01:46:59;1;1;
44350;PMS5003;62766;62.622;17.912;2023-04-03T01:49:27;3;2;
44350;PMS5003;62766;62.622;17.912;2023-04-03T01:51:56;5;2;
44350;PMS5003;62766;62.622;17.912;2023-04-03T01:54:25;1;1;
44350;PMS5003;62766;62.622;17.912;2023-04-03T01:56:53;1;1;
44350;PMS5003;62766;62.622;17.912;2023-04-03T01:59:22;0;0;
44350;PMS5003;62766;62.622;17.912;2023-04-03T02:01:51;1;1;
44350;PMS5003;62766;62.622;17.912;2023-04-03T02:04:20;3;3;
44350;PMS5003;62766;62.622;17.912;2023-04-03T02:06:48;2;1;
44350;PMS5003;62766;62.622;17.912;2023-04-03T02:09:17;3;1;
44350;PMS5003;62766;62.622;17.912;2023-04-03T02:11:46;3;2;
44350;PMS5003;62766;62.622;17.912;2023-04-03T02:14:14;2;1;
44350;PMS5003;62766;62.622;17.912;2023-04-03T02:16:43;5;3;
44350;PMS5003;62766;62.622;17.912;2023-04-03T02:19:13;2;2;
44350;PMS5003;62766;62.622;17.912;2023-04-03T02:21:41;1;1;
44350;PMS5003;62766;62.622;17.912;2023-04-03T02:24:10;2;2;
44350;PMS5003;62766;62.622;17.912;2023-04-03T02:26:39;2;1;
44350;PMS5003;62766;62.622;17.912;2023-04-03T02:29:07;3;2;
44350;PMS5003;62766;62.622;17.912;2023-04-03T02:31:36;3;1;
44350;PMS5003;62766;62.622;17.912;2023-04-03T02:34:05;2;2;
44350;PMS5003;62766;62.622;17.912;2023-04-03T02:36:34;3;1;
44350;PMS5003;62766;62.622;17.912;2023-04-03T02:39:03;2;2;
44350;PMS5003;62766;62.622;17.912;2023-04-03T02:41:33;3;3;
44350;PMS5003;62766;62.622;17.912;2023-04-03T02:44:02;3;2;
44350;PMS5003;62766;62.622;17.912;2023-04-03T02:46:34;4;4;
44350;PMS5003;62766;62.622;17.912;2023-04-03T02:49:03;2;2;
44350;PMS5003;62766;62.622;17.912;2023-04-03T02:51:33;5;2;
44350;PMS5003;62766;62.622;17.912;2023-04-03T02:54:02;2;0;
44350;PMS5003;62766;62.622;17.912;2023-04-03T02:56:32;2;2;
44350;PMS5003;62766;62.622;17.912;2023-04-03T02:59:01;2;2;
44350;PMS5003;62766;62.622;17.912;2023-04-03T03:01:30;3;3;
44350;PMS5003;62766;62.622;17.912;2023-04-03T03:03:58;5;2;
44350;PMS5003;62766;62.622;17.912;2023-04-03T03:06:27;2;2;
44350;PMS5003;62766;62.622;17.912;2023-04-03T03:08:56;1;1;
44350;PMS5003;62766;62.622;17.912;2023-04-03T03:11:24;0;0;
44350;PMS5003;62766;62.622;17.912;2023-04-03T03:13:53;0;0;
44350;PMS5003;62766;62.622;17.912;2023-04-03T03:16:22;2;1;
44350;PMS5003;62766;62.622;17.912;2023-04-03T03:18:51;1;1;
44350;PMS5003;62766;62.622;17.912;2023-04-03T03:21:20;3;1;
44350;PMS5003;62766;62.622;17.912;2023-04-03T03:23:49;2;0;
44350;PMS5003;62766;62.622;17.912;2023-04-03T03:26:17;2;2;
44350;PMS5003;62766;62.622;17.912;2023-04-03T03:28:46;2;2;
44350;PMS5003;62766;62.622;17.912;2023-04-03T03:31:15;2;2;
44350;PMS5003;62766;62.622;17.912;2023-04-03T03:33:43;1;1;
44350;PMS5003;62766;62.622;17.912;2023-04-03T03:36:12;1;1;
44350;PMS5003;62766;62.622;17.912;2023-04-03T03:38:41;5;1;
44350;PMS5003;62766;62.622;17.912;2023-04-03T03:41:10;1;1;
44350;PMS5003;62766;62.622;17.912;2023-04-03T03:43:38;1;1;
44350;PMS5003;62766;62.622;17.912;2023-04-03T03:46:07;2;1;
44350;PMS5003;62766;62.622;17.912;2023-04-03T03:48:36;3;2;
44350;PMS5003;62766;62.622;17.912;2023-04-03T03:51:05;2;1;
44350;PMS5003;62766;62.622;17.912;2023-04-03T03:53:33;1;1;
44350;PMS5003;62766;62.622;17.912;2023-04-03T03:56:02;2;1;
44350;PMS5003;62766;62.622;17.912;2023-04-03T03:58:32;2;2;
44350;PMS5003;62766;62.622;17.912;2023-04-03T04:03:23;1;0;
44350;PMS5003;62766;62.622;17.912;2023-04-03T04:05:51;5;1;
44350;PMS5003;62766;62.622;17.912;2023-04-03T04:08:20;1;1;
44350;PMS5003;62766;62.622;17.912;2023-04-03T04:10:49;2;2;
44350;PMS5003;62766;62.622;17.912;2023-04-03T04:13:18;3;1;
44350;PMS5003;62766;62.622;17.912;2023-04-03T04:15:47;3;1;
44350;PMS5003;62766;62.622;17.912;2023-04-03T04:18:16;2;0;
44350;PMS5003;62766;62.622;17.912;2023-04-03T04:20:44;3;2;
44350;PMS5003;62766;62.622;17.912;2023-04-03T04:23:13;3;1;
44350;PMS5003;62766;62.622;17.912;2023-04-03T04:25:43;1;1;
44350;PMS5003;62766;62.622;17.912;2023-04-03T04:28:13;1;1;
44350;PMS5003;62766;62.622;17.912;2023-04-03T04:30:41;5;3;
44350;PMS5003;62766;62.622;17.912;2023-04-03T04:33:10;2;2;
44350;PMS5003;62766;62.622;17.912;2023-04-03T04:35:39;1;1;
44350;PMS5003;62766;62.622;17.912;2023-04-03T04:38:09;2;2;
44350;PMS5003;62766;62.622;17.912;2023-04-03T04:40:38;1;1;
44350;PMS5003;62766;62.622;17.912;2023-04-03T04:43:07;2;2;
44350;PMS5003;62766;62.622;17.912;2023-04-03T04:45:35;2;2;
44350;PMS5003;62766;62.622;17.912;2023-04-03T04:48:04;0;0;
44350;PMS5003;62766;62.622;17.912;2023-04-03T04:50:33;2;2;
44350;PMS5003;62766;62.622;17.912;2023-04-03T04:53:03;5;5;
44350;PMS5003;62766;62.622;17.912;2023-04-03T04:55:31;5;5;
44350;PMS5003;62766;62.622;17.912;2023-04-03T04:58:00;5;2;
44350;PMS5003;62766;62.622;17.912;2023-04-03T05:00:29;10;10;
44350;PMS5003;62766;62.622;17.912;2023-04-03T05:02:58;3;2;
44350;PMS5003;62766;62.622;17.912;2023-04-03T05:05:27;5;5;
44350;PMS5003;62766;62.622;17.912;2023-04-03T05:07:56;11;5;
44350;PMS5003;62766;62.622;17.912;2023-04-03T05:10:25;16;14;
44350;PMS5003;62766;62.622;17.912;2023-04-03T05:12:53;28;27;
44350;PMS5003;62766;62.622;17.912;2023-04-03T05:15:21;34;25;
44350;PMS5003;62766;62.622;17.912;2023-04-03T05:17:50;24;12;
44350;PMS5003;62766;62.622;17.912;2023-04-03T05:20:19;16;11;
44350;PMS5003;62766;62.622;17.912;2023-04-03T05:22:47;16;15;
44350;PMS5003;62766;62.622;17.912;2023-04-03T05:25:15;15;12;
44350;PMS5003;62766;62.622;17.912;2023-04-03T05:27:44;10;7;
44350;PMS5003;62766;62.622;17.912;2023-04-03T05:30:13;16;10;
44350;PMS5003;62766;62.622;17.912;2023-04-03T05:32:41;15;7;
44350;PMS5003;62766;62.622;17.912;2023-04-03T05:35:10;6;5;
44350;PMS5003;62766;62.622;17.912;2023-04-03T05:37:39;5;5;
44350;PMS5003;62766;62.622;17.912;2023-04-03T05:40:08;6;6;
44350;PMS5003;62766;62.622;17.912;2023-04-03T05:42:38;6;3;
44350;PMS5003;62766;62.622;17.912;2023-04-03T05:45:06;6;3;
44350;PMS5003;62766;62.622;17.912;2023-04-03T05:47:36;8;5;
44350;PMS5003;62766;62.622;17.912;2023-04-03T05:50:05;7;7;
44350;PMS5003;62766;62.622;17.912;2023-04-03T05:52:36;13;4;
44350;PMS5003;62766;62.622;17.912;2023-04-03T05:55:08;13;8;
44350;PMS5003;62766;62.622;17.912;2023-04-03T05:57:37;8;7;
44350;PMS5003;62766;62.622;17.912;2023-04-03T06:00:07;10;7;
44350;PMS5003;62766;62.622;17.912;2023-04-03T06:02:37;4;4;
44350;PMS5003;62766;62.622;17.912;2023-04-03T06:05:06;6;4;
44350;PMS5003;62766;62.622;17.912;2023-04-03T06:07:34;9;7;
44350;PMS5003;62766;62.622;17.912;2023-04-03T06:10:04;3;3;
44350;PMS5003;62766;62.622;17.912;2023-04-03T06:12:34;4;2;
44350;PMS5003;62766;62.622;17.912;2023-04-03T06:15:04;6;4;
44350;PMS5003;62766;62.622;17.912;2023-04-03T06:17:33;11;6;
44350;PMS5003;62766;62.622;17.912;2023-04-03T06:20:02;8;6;
44350;PMS5003;62766;62.622;17.912;2023-04-03T06:22:32;6;2;
44350;PMS5003;62766;62.622;17.912;2023-04-03T06:25:02;14;12;
44350;PMS5003;62766;62.622;17.912;2023-04-03T06:27:31;7;4;
44350;PMS5003;62766;62.622;17.912;2023-04-03T06:29:59;10;7;
44350;PMS5003;62766;62.622;17.912;2023-04-03T06:32:28;3;3;
44350;PMS5003;62766;62.622;17.912;2023-04-03T06:34:57;12;6;
44350;PMS5003;62766;62.622;17.912;2023-04-03T06:37:26;9;7;
44350;PMS5003;62766;62.622;17.912;2023-04-03T06:39:55;7;6;
44350;PMS5003;62766;62.622;17.912;2023-04-03T06:42:23;7;4;
44350;PMS5003;62766;62.622;17.912;2023-04-03T06:44:52;7;4;
44350;PMS5003;62766;62.622;17.912;2023-04-03T06:47:20;4;3;
44350;PMS5003;62766;62.622;17.912;2023-04-03T06:49:49;6;6;
44350;PMS5003;62766;62.622;17.912;2023-04-03T06:52:17;9;4;
44350;PMS5003;62766;62.622;17.912;2023-04-03T06:54:46;2;2;
44350;PMS5003;62766;62.622;17.912;2023-04-03T06:57:15;10;7;
44350;PMS5003;62766;62.622;17.912;2023-04-03T06:59:43;7;4;
44350;PMS5003;62766;62.622;17.912;2023-04-03T07:02:11;7;7;
44350;PMS5003;62766;62.622;17.912;2023-04-03T07:04:40;10;8;
44350;PMS5003;62766;62.622;17.912;2023-04-03T07:07:08;5;3;
44350;PMS5003;62766;62.622;17.912;2023-04-03T07:09:37;7;4;
44350;PMS5003;62766;62.622;17.912;2023-04-03T07:12:06;4;4;
44350;PMS5003;62766;62.622;17.912;2023-04-03T07:14:35;10;2;
44350;PMS5003;62766;62.622;17.912;2023-04-03T07:17:04;3;2;
44350;PMS5003;62766;62.622;17.912;2023-04-03T07:19:32;7;4;
44350;PMS5003;62766;62.622;17.912;2023-04-03T07:22:01;6;3;
44350;PMS5003;62766;62.622;17.912;2023-04-03T07:24:29;5;3;
44350;PMS5003;62766;62.622;17.912;2023-04-03T07:26:58;4;4;
44350;PMS5003;62766;62.622;17.912;2023-04-03T07:29:27;4;4;
44350;PMS5003;62766;62.622;17.912;2023-04-03T07:31:55;5;3;
44350;PMS5003;62766;62.622;17.912;2023-04-03T07:34:24;12;4;
44350;PMS5003;62766;62.622;17.912;2023-04-03T07:36:53;12;6;
44350;PMS5003;62766;62.622;17.912;2023-04-03T07:39:22;11;4;
44350;PMS5003;62766;62.622;17.912;2023-04-03T07:41:50;7;4;
44350;PMS5003;62766;62.622;17.912;2023-04-03T07:44:19;5;3;
44350;PMS5003;62766;62.622;17.912;2023-04-03T07:46:48;5;3;
44350;PMS5003;62766;62.622;17.912;2023-04-03T07:49:16;6;3;
44350;PMS5003;62766;62.622;17.912;2023-04-03T07:51:45;5;3;
44350;PMS5003;62766;62.622;17.912;2023-04-03T07:54:14;7;4;
44350;PMS5003;62766;62.622;17.912;2023-04-03T07:56:42;7;4;
44350;PMS5003;62766;62.622;17.912;2023-04-03T07:59:11;7;4;
44350;PMS5003;62766;62.622;17.912;2023-04-03T08:01:39;5;2;
44350;PMS5003;62766;62.622;17.912;2023-04-03T08:04:08;2;2;
44350;PMS5003;62766;62.622;17.912;2023-04-03T08:06:36;4;4;
44350;PMS5003;62766;62.622;17.912;2023-04-03T08:09:05;2;2;
44350;PMS5003;62766;62.622;17.912;2023-04-03T08:11:33;4;3;
44350;PMS5003;62766;62.622;17.912;2023-04-03T08:14:03;2;2;
44350;PMS5003;62766;62.622;17.912;2023-04-03T08:16:32;1;1;
44350;PMS5003;62766;62.622;17.912;2023-04-03T08:19:02;2;2;
44350;PMS5003;62766;62.622;17.912;2023-04-03T08:21:31;2;2;
44350;PMS5003;62766;62.622;17.912;2023-04-03T08:24:00;3;2;
44350;PMS5003;62766;62.622;17.912;2023-04-03T08:26:28;1;1;
44350;PMS5003;62766;62.622;17.912;2023-04-03T08:28:57;2;0;
44350;PMS5003;62766;62.622;17.912;2023-04-03T08:31:25;2;1;
44350;PMS5003;62766;62.622;17.912;2023-04-03T08:33:54;1;1;
44350;PMS5003;62766;62.622;17.912;2023-04-03T08:36:23;3;1;
44350;PMS5003;62766;62.622;17.912;2023-04-03T08:38:53;2;0;
44350;PMS5003;62766;62.622;17.912;2023-04-03T08:41:25;1;1;
44350;PMS5003;62766;62.622;17.912;2023-04-03T08:44:02;1;1;
44350;PMS5003;62766;62.622;17.912;2023-04-03T08:46:42;1;1;
44350;PMS5003;62766;62.622;17.912;2023-04-03T08:49:22;3;1;
44350;PMS5003;62766;62.622;17.912;2023-04-03T08:51:55;1;1;
44350;PMS5003;62766;62.622;17.912;2023-04-03T08:54:28;0;0;
44350;PMS5003;62766;62.622;17.912;2023-04-03T08:56:59;2;2;
44350;PMS5003;62766;62.622;17.912;2023-04-03T08:59:33;3;2;
44350;PMS5003;62766;62.622;17.912;2023-04-03T09:02:12;4;2;
44350;PMS5003;62766;62.622;17.912;2023-04-03T09:04:50;3;1;
44350;PMS5003;62766;62.622;17.912;2023-04-03T09:07:20;2;2;
44350;PMS5003;62766;62.622;17.912;2023-04-03T09:09:59;1;1;
44350;PMS5003;62766;62.622;17.912;2023-04-03T09:12:32;2;2;
44350;PMS5003;62766;62.622;17.912;2023-04-03T09:15:09;5;3;
44350;PMS5003;62766;62.622;17.912;2023-04-03T09:17:47;2;1;
44350;PMS5003;62766;62.622;17.912;2023-04-03T09:20:26;2;2;
44350;PMS5003;62766;62.622;17.912;2023-04-03T09:23:10;2;2;
44350;PMS5003;62766;62.622;17.912;2023-04-03T09:25:46;4;4;
44350;PMS5003;62766;62.622;17.912;2023-04-03T09:28:17;1;1;
44350;PMS5003;62766;62.622;17.912;2023-04-03T09:30:45;0;0;
44350;PMS5003;62766;62.622;17.912;2023-04-03T09:33:14;1;1;
44350;PMS5003;62766;62.622;17.912;2023-04-03T09:35:44;0;0;
44350;PMS5003;62766;62.622;17.912;2023-04-03T09:38:15;2;0;
44350;PMS5003;62766;62.622;17.912;2023-04-03T09:40:47;1;1;
44350;PMS5003;62766;62.622;17.912;2023-04-03T09:43:21;3;0;
44350;PMS5003;62766;62.622;17.912;2023-04-03T09:45:52;2;0;
44350;PMS5003;62766;62.622;17.912;2023-04-03T09:48:22;1;1;
44350;PMS5003;62766;62.622;17.912;2023-04-03T09:50:54;0;0;
44350;PMS5003;62766;62.622;17.912;2023-04-03T09:53:27;0;0;
44350;PMS5003;62766;62.622;17.912;2023-04-03T09:56:00;1;1;
44350;PMS5003;62766;62.622;17.912;2023-04-03T09:58:32;0;0;
44350;PMS5003;62766;62.622;17.912;2023-04-03T10:03:24;1;1;
44350;PMS5003;62766;62.622;17.912;2023-04-03T10:05:57;0;0;
44350;PMS5003;62766;62.622;17.912;2023-04-03T10:08:27;1;1;
44350;PMS5003;62766;62.622;17.912;2023-04-03T10:11:06;1;1;
44350;PMS5003;62766;62.622;17.912;2023-04-03T10:13:49;1;1;
44350;PMS5003;62766;62.622;17.912;2023-04-03T10:16:21;3;1;
44350;PMS5003;62766;62.622;17.912;2023-04-03T10:18:57;3;2;
44350;PMS5003;62766;62.622;17.912;2023-04-03T10:21:37;2;2;
44350;PMS5003;62766;62.622;17.912;2023-04-03T10:24:14;1;1;
44350;PMS5003;62766;62.622;17.912;2023-04-03T10:26:51;2;1;
44350;PMS5003;62766;62.622;17.912;2023-04-03T10:29:27;2;2;
44350;PMS5003;62766;62.622;17.912;2023-04-03T10:32:10;0;0;
44350;PMS5003;62766;62.622;17.912;2023-04-03T10:34:50;1;0;
44350;PMS5003;62766;62.622;17.912;2023-04-03T10:37:24;1;1;
44350;PMS5003;62766;62.622;17.912;2023-04-03T10:39:59;3;1;
44350;PMS5003;62766;62.622;17.912;2023-04-03T10:42:33;4;1;
44350;PMS5003;62766;62.622;17.912;2023-04-03T10:45:16;1;1;
44350;PMS5003;62766;62.622;17.912;2023-04-03T10:47:51;1;0;
44350;PMS5003;62766;62.622;17.912;2023-04-03T10:50:31;4;2;
44350;PMS5003;62766;62.622;17.912;2023-04-03T10:53:13;2;1;
44350;PMS5003;62766;62.622;17.912;2023-04-03T10:55:52;1;1;
44350;PMS5003;62766;62.622;17.912;2023-04-03T10:58:29;1;1;
44350;PMS5003;62766;62.622;17.912;2023-04-03T11:01:01;2;2;
44350;PMS5003;62766;62.622;17.912;2023-04-03T11:03:35;2;2;
44350;PMS5003;62766;62.622;17.912;2023-04-03T11:06:07;1;1;
44350;PMS5003;62766;62.622;17.912;2023-04-03T11:08:38;2;0;
44350;PMS5003;62766;62.622;17.912;2023-04-03T11:11:17;1;0;
44350;PMS5003;62766;62.622;17.912;2023-04-03T11:13:51;3;3;
44350;PMS5003;62766;62.622;17.912;2023-04-03T11:16:24;1;1;
44350;PMS5003;62766;62.622;17.912;2023-04-03T11:18:56;2;2;
44350;PMS5003;62766;62.622;17.912;2023-04-03T11:21:31;1;1;
44350;PMS5003;62766;62.622;17.912;2023-04-03T11:24:09;1;1;
44350;PMS5003;62766;62.622;17.912;2023-04-03T11:26:44;0;0;
44350;PMS5003;62766;62.622;17.912;2023-04-03T11:29:13;1;1;
44350;PMS5003;62766;62.622;17.912;2023-04-03T11:31:56;1;1;
44350;PMS5003;62766;62.622;17.912;2023-04-03T11:34:36;1;1;
44350;PMS5003;62766;62.622;17.912;2023-04-03T11:37:11;1;1;
44350;PMS5003;62766;62.622;17.912;2023-04-03T11:39:48;1;1;
44350;PMS5003;62766;62.622;17.912;2023-04-03T11:42:25;0;0;
44350;PMS5003;62766;62.622;17.912;2023-04-03T11:46:03;2;1;
44350;PMS5003;62766;62.622;17.912;2023-04-03T11:48:50;1;1;
44350;PMS5003;62766;62.622;17.912;2023-04-03T11:54:46;1;1;
44350;PMS5003;62766;62.622;17.912;2023-04-03T11:58:22;0;0;
44350;PMS5003;62766;62.622;17.912;2023-04-03T12:00:59;3;0;
44350;PMS5003;62766;62.622;17.912;2023-04-03T12:03:31;2;1;
44350;PMS5003;62766;62.622;17.912;2023-04-03T12:07:13;0;0;
44350;PMS5003;62766;62.622;17.912;2023-04-03T12:12:33;1;0;
44350;PMS5003;62766;62.622;17.912;2023-04-03T12:15:23;1;1;
44350;PMS5003;62766;62.622;17.912;2023-04-03T12:18:43;1;1;
44350;PMS5003;62766;62.622;17.912;2023-04-03T12:21:22;1;1;
44350;PMS5003;62766;62.622;17.912;2023-04-03T12:23:57;0;0;
44350;PMS5003;62766;62.622;17.912;2023-04-03T12:26:30;1;1;
44350;PMS5003;62766;62.622;17.912;2023-04-03T12:29:02;1;1;
44350;PMS5003;62766;62.622;17.912;2023-04-03T12:31:45;0;0;
44350;PMS5003;62766;62.622;17.912;2023-04-03T12:34:33;1;1;
44350;PMS5003;62766;62.622;17.912;2023-04-03T12:37:20;0;0;
44350;PMS5003;62766;62.622;17.912;2023-04-03T12:40:02;0;0;
44350;PMS5003;62766;62.622;17.912;2023-04-03T12:42:42;0;0;
44350;PMS5003;62766;62.622;17.912;2023-04-03T12:45:40;0;0;
44350;PMS5003;62766;62.622;17.912;2023-04-03T12:48:14;0;0;
44350;PMS5003;62766;62.622;17.912;2023-04-03T12:50:45;4;2;
44350;PMS5003;62766;62.622;17.912;2023-04-03T12:53:16;1;1;
44350;PMS5003;62766;62.622;17.912;2023-04-03T12:55:47;0;0;
44350;PMS5003;62766;62.622;17.912;2023-04-03T12:58:16;0;0;
44350;PMS5003;62766;62.622;17.912;2023-04-03T13:00:59;0;0;
44350;PMS5003;62766;62.622;17.912;2023-04-03T13:03:29;1;0;
44350;PMS5003;62766;62.622;17.912;2023-04-03T13:05:59;2;0;
44350;PMS5003;62766;62.622;17.912;2023-04-03T13:08:29;3;2;
44350;PMS5003;62766;62.622;17.912;2023-04-03T13:10:59;0;0;
44350;PMS5003;62766;62.622;17.912;2023-04-03T13:13:31;0;0;
44350;PMS5003;62766;62.622;17.912;2023-04-03T13:15:59;1;0;
44350;PMS5003;62766;62.622;17.912;2023-04-03T13:18:35;0;0;
44350;PMS5003;62766;62.622;17.912;2023-04-03T13:21:06;5;1;
44350;PMS5003;62766;62.622;17.912;2023-04-03T13:23:43;4;4;
44350;PMS5003;62766;62.622;17.912;2023-04-03T13:26:16;1;1;
44350;PMS5003;62766;62.622;17.912;2023-04-03T13:28:46;0;0;
44350;PMS5003;62766;62.622;17.912;2023-04-03T13:31:18;1;1;
44350;PMS5003;62766;62.622;17.912;2023-04-03T13:34:03;0;0;
44350;PMS5003;62766;62.622;17.912;2023-04-03T13:36:35;1;1;
44350;PMS5003;62766;62.622;17.912;2023-04-03T13:39:06;0;0;
44350;PMS5003;62766;62.622;17.912;2023-04-03T13:41:49;1;0;
44350;PMS5003;62766;62.622;17.912;2023-04-03T13:44:28;0;0;
44350;PMS5003;62766;62.622;17.912;2023-04-03T13:47:13;0;0;
44350;PMS5003;62766;62.622;17.912;2023-04-03T13:49:46;3;3;
44350;PMS5003;62766;62.622;17.912;2023-04-03T13:52:29;1;1;
44350;PMS5003;62766;62.622;17.912;2023-04-03T13:55:00;0;0;
44350;PMS5003;62766;62.622;17.912;2023-04-03T13:57:31;0;0;
44350;PMS5003;62766;62.622;17.912;2023-04-03T14:00:00;0;0;
44350;PMS5003;62766;62.622;17.912;2023-04-03T14:02:49;0;0;
44350;PMS5003;62766;62.622;17.912;2023-04-03T14:05:17;0;0;
44350;PMS5003;62766;62.622;17.912;2023-04-03T14:07:46;1;1;
44350;PMS5003;62766;62.622;17.912;2023-04-03T14:10:14;1;1;
44350;PMS5003;62766;62.622;17.912;2023-04-03T14:12:43;1;1;
44350;PMS5003;62766;62.622;17.912;2023-04-03T14:15:16;0;0;
44350;PMS5003;62766;62.622;17.912;2023-04-03T14:17:47;0;0;
44350;PMS5003;62766;62.622;17.912;2023-04-03T14:20:16;1;1;
44350;PMS5003;62766;62.622;17.912;2023-04-03T14:22:45;0;0;
44350;PMS5003;62766;62.622;17.912;2023-04-03T14:25:14;1;0;
44350;PMS5003;62766;62.622;17.912;2023-04-03T14:27:43;0;0;
44350;PMS5003;62766;62.622;17.912;2023-04-03T14:30:13;2;0;
44350;PMS5003;62766;62.622;17.912;2023-04-03T14:32:44;1;0;
44350;PMS5003;62766;62.622;17.912;2023-04-03T14:35:13;0;0;
44350;PMS5003;62766;62.622;17.912;2023-04-03T14:37:41;0;0;
44350;PMS5003;62766;62.622;17.912;2023-04-03T14:40:11;0;0;
44350;PMS5003;62766;62.622;17.912;2023-04-03T14:42:41;1;0;
44350;PMS5003;62766;62.622;17.912;2023-04-03T14:45:11;1;1;
44350;PMS5003;62766;62.622;17.912;2023-04-03T14:47:41;0;0;
44350;PMS5003;62766;62.622;17.912;2023-04-03T14:50:15;1;1;
44350;PMS5003;62766;62.622;17.912;2023-04-03T14:52:46;2;0;
44350;PMS5003;62766;62.622;17.912;2023-04-03T14:55:17;2;0;
44350;PMS5003;62766;62.622;17.912;2023-04-03T14:57:46;2;0;
44350;PMS5003;62766;62.622;17.912;2023-04-03T15:00:16;1;1;
44350;PMS5003;62766;62.622;17.912;2023-04-03T15:02:46;0;0;
44350;PMS5003;62766;62.622;17.912;2023-04-03T15:05:15;1;1;
44350;PMS5003;62766;62.622;17.912;2023-04-03T15:07:45;1;0;
44350;PMS5003;62766;62.622;17.912;2023-04-03T15:10:18;1;1;
44350;PMS5003;62766;62.622;17.912;2023-04-03T15:12:49;0;0;
44350;PMS5003;62766;62.622;17.912;2023-04-03T15:15:20;1;0;
44350;PMS5003;62766;62.622;17.912;2023-04-03T15:17:51;3;1;
44350;PMS5003;62766;62.622;17.912;2023-04-03T15:20:22;2;0;
44350;PMS5003;62766;62.622;17.912;2023-04-03T15:22:53;0;0;
44350;PMS5003;62766;62.622;17.912;2023-04-03T15:25:22;0;0;
44350;PMS5003;62766;62.622;17.912;2023-04-03T15:27:50;0;0;
44350;PMS5003;62766;62.622;17.912;2023-04-03T15:30:19;0;0;
44350;PMS5003;62766;62.622;17.912;2023-04-03T15:32:47;3;1;
44350;PMS5003;62766;62.622;17.912;2023-04-03T15:35:16;0;0;
44350;PMS5003;62766;62.622;17.912;2023-04-03T15:37:44;1;1;
44350;PMS5003;62766;62.622;17.912;2023-04-03T15:40:13;0;0;
44350;PMS5003;62766;62.622;17.912;2023-04-03T15:42:43;0;0;
44350;PMS5003;62766;62.622;17.912;2023-04-03T15:45:11;1;1;
44350;PMS5003;62766;62.622;17.912;2023-04-03T15:47:40;1;1;
44350;PMS5003;62766;62.622;17.912;2023-04-03T15:50:10;1;1;
44350;PMS5003;62766;62.622;17.912;2023-04-03T15:52:38;0;0;
44350;PMS5003;62766;62.622;17.912;2023-04-03T15:55:12;1;0;
44350;PMS5003;62766;62.622;17.912;2023-04-03T15:57:41;0;0;
44350;PMS5003;62766;62.622;17.912;2023-04-03T16:03:27;1;1;
44350;PMS5003;62766;62.622;17.912;2023-04-03T16:05:55;2;0;
44350;PMS5003;62766;62.622;17.912;2023-04-03T16:08:24;1;1;
44350;PMS5003;62766;62.622;17.912;2023-04-03T16:10:52;0;0;
44350;PMS5003;62766;62.622;17.912;2023-04-03T16:13:21;1;1;
44350;PMS5003;62766;62.622;17.912;2023-04-03T16:15:49;2;2;
44350;PMS5003;62766;62.622;17.912;2023-04-03T16:18:18;0;0;
44350;PMS5003;62766;62.622;17.912;2023-04-03T16:20:48;2;0;
44350;PMS5003;62766;62.622;17.912;2023-04-03T16:23:17;2;0;
44350;PMS5003;62766;62.622;17.912;2023-04-03T16:25:45;1;1;
44350;PMS5003;62766;62.622;17.912;2023-04-03T16:28:14;2;2;
44350;PMS5003;62766;62.622;17.912;2023-04-03T16:30:44;4;2;
44350;PMS5003;62766;62.622;17.912;2023-04-03T16:33:14;7;5;
44350;PMS5003;62766;62.622;17.912;2023-04-03T16:35:42;1;1;
44350;PMS5003;62766;62.622;17.912;2023-04-03T16:38:10;1;1;
44350;PMS5003;62766;62.622;17.912;2023-04-03T16:40:39;2;2;
44350;PMS5003;62766;62.622;17.912;2023-04-03T16:43:08;0;0;
44350;PMS5003;62766;62.622;17.912;2023-04-03T16:45:36;1;1;
44350;PMS5003;62766;62.622;17.912;2023-04-03T16:48:05;2;0;
44350;PMS5003;62766;62.622;17.912;2023-04-03T16:50:33;2;1;
44350;PMS5003;62766;62.622;17.912;2023-04-03T16:53:02;1;0;
44350;PMS5003;62766;62.622;17.912;2023-04-03T16:55:30;0;0;
44350;PMS5003;62766;62.622;17.912;2023-04-03T16:57:59;1;1;
44350;PMS5003;62766;62.622;17.912;2023-04-03T17:00:27;2;2;
44350;PMS5003;62766;62.622;17.912;2023-04-03T17:02:56;2;1;
44350;PMS5003;62766;62.622;17.912;2023-04-03T17:05:24;2;2;
44350;PMS5003;62766;62.622;17.912;2023-04-03T17:07:52;1;1;
44350;PMS5003;62766;62.622;17.912;2023-04-03T17:10:21;1;1;
44350;PMS5003;62766;62.622;17.912;2023-04-03T17:12:50;3;1;
44350;PMS5003;62766;62.622;17.912;2023-04-03T17:15:18;1;1;
44350;PMS5003;62766;62.622;17.912;2023-04-03T17:17:48;3;1;